Cramond Island — VRQJ9 — position and weather

sailwx.info

Track history (hours):
 
Tides and Currents Weather Stations Pressure Air Temp Water Temp Dewpoint Dewpoint Depression Visibility Wind Speed Wind Dir Waves Ship Positions

Cramond Island

Last reported at 2018-Jul-11 13:21 UTC. Time now 2018-Aug-16 08:45 UTC.
Position N 24°27' W 016°55'.
Warning: this ship's position is 35 days out of date.

Length 190 m; draft 12.1 m.

Type: Cargo ship. MMSI: 477023400.

Date/timePositionNaut miles runAvg speedWind from/ knotsBaromVisibWave heightAir tempDewpointWater temp
2018-Jul-11 13:21N 24°27' W 016°55'612.5
2018-Jul-11 12:52N 24°31' W 016°51'513.2
2018-Jul-11 12:30N 24°35' W 016°48'612.8
2018-Jul-11 12:00N 24°40' W 016°44'11212.8
2018-Jul-11 03:13N 26°09' W 015°29'313.2
2018-Jul-11 03:00N 26°11' W 015°27'2612.7
2018-Jul-11 00:57N 26°32' W 015°09'712.6
2018-Jul-11 00:25N 26°38' W 015°04'612.9
2018-Jul-10 23:56N 26°42' W 015°00'612.9
2018-Jul-10 23:30N 26°47' W 014°56'712.9
2018-Jul-10 22:59N 26°52' W 014°52'712.7
2018-Jul-10 22:28N 26°57' W 014°47'612.5
2018-Jul-10 22:01N 27°02' W 014°43'612.4
2018-Jul-10 21:31N 27°07' W 014°39'612.4
2018-Jul-10 21:00N 27°11' W 014°34'612.7
2018-Jul-10 20:30N 27°16' W 014°29'612.9
2018-Jul-10 20:00N 27°21' W 014°25'713.1
2018-Jul-10 19:30N 27°26' W 014°20'713.1
2018-Jul-10 19:00N 27°31' W 014°15'713.1
2018-Jul-10 18:30N 27°35' W 014°10'713.1
2018-Jul-10 18:00N 27°40' W 014°05'713.4
2018-Jul-10 17:30N 27°45' W 013°60'713.2
2018-Jul-10 17:00N 27°50' W 013°55'713.2
2018-Jul-10 16:30N 27°55' W 013°49'713.3
2018-Jul-10 16:00N 28°00' W 013°45'713.3
2018-Jul-10 15:30N 28°05' W 013°40'713.3
2018-Jul-10 15:00N 28°10' W 013°35'713.4
2018-Jul-10 14:30N 28°15' W 013°30'713.2
2018-Jul-10 14:00N 28°20' W 013°25'612.8
2018-Jul-10 13:30N 28°26' W 013°21'612.6
2018-Jul-10 13:00N 28°31' W 013°17'612.8
2018-Jul-10 12:30N 28°36' W 013°14'713.2
2018-Jul-10 12:00N 28°42' W 013°10'713.3
2018-Jul-10 11:28N 28°48' W 013°06'713.4
2018-Jul-10 10:58N 28°54' W 013°01'613.3
2018-Jul-10 10:30N 28°59' W 012°58'713.1
2018-Jul-10 10:00N 29°05' W 012°54'613.0
2018-Jul-10 09:30N 29°10' W 012°50'713.0
2018-Jul-10 09:00N 29°16' W 012°46'713.1
2018-Jul-10 08:30N 29°22' W 012°42'613.1
2018-Jul-10 08:00N 29°27' W 012°38'713.2
2018-Jul-10 07:30N 29°33' W 012°35'713.3
2018-Jul-10 06:59N 29°39' W 012°31'713.3
2018-Jul-10 06:27N 29°45' W 012°26'713.4
2018-Jul-10 05:57N 29°51' W 012°22'613.4
2018-Jul-10 05:29N 29°56' W 012°19'713.5
2018-Jul-10 05:00N 30°02' W 012°15'713.5
2018-Jul-10 04:27N 30°08' W 012°10'613.7
2018-Jul-10 04:00N 30°13' W 012°07'713.7
2018-Jul-10 03:30N 30°19' W 012°03'713.7
2018-Jul-10 03:00N 30°25' W 011°58'714.1
2018-Jul-10 02:30N 30°31' W 011°54'714.3
2018-Jul-10 02:00N 30°37' W 011°50'714.1
2018-Jul-10 01:29N 30°43' W 011°45'713.8
2018-Jul-10 01:00N 30°49' W 011°41'713.4
2018-Jul-10 00:30N 30°55' W 011°37'713.1
2018-Jul-10 00:00N 31°00' W 011°34'613.0
2018-Jul-09 23:30N 31°06' W 011°30'813.2
2018-Jul-09 22:53N 31°13' W 011°25'513.2
2018-Jul-09 22:29N 31°17' W 011°21'713.3
2018-Jul-09 21:59N 31°23' W 011°17'613.3
2018-Jul-09 21:30N 31°28' W 011°13'713.2
2018-Jul-09 20:58N 31°35' W 011°09'613.1
2018-Jul-09 20:30N 31°40' W 011°06'813.3
2018-Jul-09 19:56N 31°46' W 011°01'613.5
2018-Jul-09 19:29N 31°52' W 010°57'813.4
2018-Jul-09 18:52N 31°59' W 010°52'813.4
2018-Jul-09 18:14N 32°06' W 010°47'313.5
2018-Jul-09 18:00N 32°09' W 010°45'713.7
2018-Jul-09 17:27N 32°15' W 010°41'1413.6
2018-Jul-09 16:25N 32°27' W 010°32'813.5
2018-Jul-09 15:47N 32°34' W 010°27'15213.0
2018-Jul-09 04:03N 34°30' W 008°28'412.9
2018-Jul-09 03:46N 34°33' W 008°25'16212.4
2018-Jul-08 14:39N 35°57' W 005°36'210.6
2018-Jul-08 14:30N 35°58' W 005°34'510.4
2018-Jul-08 14:00N 35°59' W 005°28'611.3
2018-Jul-08 13:30N 36°00' W 005°21'611.1
2018-Jul-08 13:00N 36°02' W 005°14'711.8
2018-Jul-08 12:27N 36°02' W 005°06'19612.0
2018-Jul-07 20:12N 36°32' W 001°06'412.9
2018-Jul-07 19:53N 36°32' W 001°01'913.2
2018-Jul-07 19:11N 36°36' W 000°51'213.5
2018-Jul-07 19:00N 36°37' W 000°48'813.6
2018-Jul-07 18:27N 36°40' W 000°39'3113.5
2018-Jul-07 16:08N 36°52' W 000°03'213.5
2018-Jul-07 16:00N 36°53' W 000°01'713.6
2018-Jul-07 15:30N 36°55' E 000°07'813.4
2018-Jul-07 14:55N 36°58' E 000°16'6413.0
2018-Jul-07 10:02N 37°23' E 001°30'2913.2
2018-Jul-07 07:51N 37°34' E 002°03'6413.2
2018-Jul-07 03:01N 37°39' E 003°24'213.2
2018-Jul-07 02:53N 37°39' E 003°26'613.2
2018-Jul-07 02:26N 37°39' E 003°33'5413.0
2018-Jul-06 22:16N 37°43' E 004°42'613.2
2018-Jul-06 21:50N 37°43' E 004°49'413.2
2018-Jul-06 21:30N 37°43' E 004°54'713.3
2018-Jul-06 20:57N 37°44' E 005°04'31112.4
2018-Jul-05 19:54N 37°24' E 011°35'5012.8
2018-Jul-05 16:02N 37°04' E 012°32'012.6
2018-Jul-05 16:00N 37°04' E 012°33'712.6
2018-Jul-05 15:29N 37°00' E 012°40'612.6
2018-Jul-05 15:00N 36°57' E 012°46'1312.9
2018-Jul-05 14:00N 36°51' E 013°00'613.1
2018-Jul-05 13:30N 36°47' E 013°07'713.2
2018-Jul-05 13:00N 36°44' E 013°14'713.0
2018-Jul-05 12:30N 36°41' E 013°21'713.3
2018-Jul-05 12:00N 36°38' E 013°29'613.1
2018-Jul-05 11:30N 36°34' E 013°36'612.8
2018-Jul-05 11:00N 36°31' E 013°43'612.7
2018-Jul-05 10:30N 36°28' E 013°49'712.7
2018-Jul-05 09:59N 36°24' E 013°56'612.8
2018-Jul-05 09:30N 36°21' E 014°03'613.0
2018-Jul-05 09:00N 36°18' E 014°10'713.0
2018-Jul-05 08:30N 36°14' E 014°16'613.1
2018-Jul-05 08:00N 36°10' E 014°23'612.9
2018-Jul-05 07:30N 36°06' E 014°29'712.9
2018-Jul-05 07:00N 36°02' E 014°35'18 1.2
2018-Jul-04 15:34N 35°53' E 014°55'0 0.1
2018-Jul-04 15:28N 35°53' E 014°55'0 0.0
2018-Jul-04 14:49N 35°53' E 014°55'0 0.1
2018-Jul-04 14:28N 35°53' E 014°55'0 0.1
2018-Jul-04 13:58N 35°53' E 014°55'0 0.0
2018-Jul-04 13:28N 35°53' E 014°55'0 0.0
2018-Jul-04 12:58N 35°53' E 014°55'0 0.1
2018-Jul-04 12:22N 35°53' E 014°55'0 0.1
2018-Jul-04 11:58N 35°53' E 014°55'0 0.1
2018-Jul-04 11:22N 35°53' E 014°55'0 0.1
2018-Jul-04 10:58N 35°53' E 014°55'0 0.1
2018-Jul-04 10:28N 35°53' E 014°55'0 0.1
2018-Jul-04 09:58N 35°53' E 014°55'0 0.1
2018-Jul-04 09:28N 35°53' E 014°55'0 0.1
2018-Jul-04 08:58N 35°53' E 014°55'0 0.1
2018-Jul-04 08:28N 35°53' E 014°55'0 0.0
2018-Jul-04 07:58N 35°53' E 014°55'0 0.0
2018-Jul-04 07:28N 35°53' E 014°55'0 0.0
2018-Jul-04 06:58N 35°53' E 014°55'0 0.0
2018-Jul-04 06:28N 35°53' E 014°55'0 0.1
2018-Jul-04 05:58N 35°53' E 014°55'0 0.0
2018-Jul-04 05:25N 35°53' E 014°55'0 0.0
2018-Jul-03 15:37N 35°53' E 014°55'0 0.0
2018-Jul-03 15:28N 35°53' E 014°55'0 0.0
2018-Jul-03 13:58N 35°53' E 014°55'0 0.1
2018-Jul-03 13:28N 35°53' E 014°55'0 0.3
2018-Jul-03 12:56N 35°53' E 014°55'2 5.8
2018-Jul-03 12:30N 35°52' E 014°58'510.4
2018-Jul-03 12:00N 35°49' E 015°03'713.2
2018-Jul-03 11:29N 35°45' E 015°10'713.4
2018-Jul-03 10:58N 35°40' E 015°16'1013.2
2018-Jul-03 10:14N 35°36' E 015°27'613.5
2018-Jul-03 09:49N 35°35' E 015°33'413.4
2018-Jul-03 09:30N 35°34' E 015°39'713.4
2018-Jul-03 09:00N 35°32' E 015°47'713.3
2018-Jul-03 08:30N 35°30' E 015°54'713.2
2018-Jul-03 08:00N 35°29' E 016°02'713.1
2018-Jul-03 07:30N 35°27' E 016°10'613.1
2018-Jul-03 07:00N 35°26' E 016°18'1012.9
2018-Jul-03 06:14N 35°23' E 016°30'712.8
2018-Jul-03 05:41N 35°22' E 016°38'  
Track history (hours):
 
Tides and Currents Weather Stations Pressure Air Temp Water Temp Dewpoint Dewpoint Depression Visibility Wind Speed Wind Dir Waves Ship Positions

Cramond Island

Last reported at 2018-Jul-11 13:21 UTC. Time now 2018-Aug-16 08:45 UTC.
Position N 24°27' W 016°55'.
Warning: this ship's position is 35 days out of date.

Length 190 m; draft 12.1 m.

Type: Cargo ship. MMSI: 477023400.

Date/timePositionNaut miles runAvg speedWind from/ knotsBaromVisibWave heightAir tempDewpointWater temp
2018-Jul-11 13:21N 24°27' W 016°55'612.5
2018-Jul-11 12:52N 24°31' W 016°51'513.2
2018-Jul-11 12:30N 24°35' W 016°48'612.8
2018-Jul-11 12:00N 24°40' W 016°44'11212.8
2018-Jul-11 03:13N 26°09' W 015°29'313.2
2018-Jul-11 03:00N 26°11' W 015°27'2612.7
2018-Jul-11 00:57N 26°32' W 015°09'712.6
2018-Jul-11 00:25N 26°38' W 015°04'612.9
2018-Jul-10 23:56N 26°42' W 015°00'612.9
2018-Jul-10 23:30N 26°47' W 014°56'712.9
2018-Jul-10 22:59N 26°52' W 014°52'712.7
2018-Jul-10 22:28N 26°57' W 014°47'612.5
2018-Jul-10 22:01N 27°02' W 014°43'612.4
2018-Jul-10 21:31N 27°07' W 014°39'612.4
2018-Jul-10 21:00N 27°11' W 014°34'612.7
2018-Jul-10 20:30N 27°16' W 014°29'612.9
2018-Jul-10 20:00N 27°21' W 014°25'713.1
2018-Jul-10 19:30N 27°26' W 014°20'713.1
2018-Jul-10 19:00N 27°31' W 014°15'713.1
2018-Jul-10 18:30N 27°35' W 014°10'713.1
2018-Jul-10 18:00N 27°40' W 014°05'713.4
2018-Jul-10 17:30N 27°45' W 013°60'713.2
2018-Jul-10 17:00N 27°50' W 013°55'713.2
2018-Jul-10 16:30N 27°55' W 013°49'713.3
2018-Jul-10 16:00N 28°00' W 013°45'713.3
2018-Jul-10 15:30N 28°05' W 013°40'713.3
2018-Jul-10 15:00N 28°10' W 013°35'713.4
2018-Jul-10 14:30N 28°15' W 013°30'713.2
2018-Jul-10 14:00N 28°20' W 013°25'612.8
2018-Jul-10 13:30N 28°26' W 013°21'612.6
2018-Jul-10 13:00N 28°31' W 013°17'612.8
2018-Jul-10 12:30N 28°36' W 013°14'713.2
2018-Jul-10 12:00N 28°42' W 013°10'713.3
2018-Jul-10 11:28N 28°48' W 013°06'713.4
2018-Jul-10 10:58N 28°54' W 013°01'613.3
2018-Jul-10 10:30N 28°59' W 012°58'713.1
2018-Jul-10 10:00N 29°05' W 012°54'613.0
2018-Jul-10 09:30N 29°10' W 012°50'713.0
2018-Jul-10 09:00N 29°16' W 012°46'713.1
2018-Jul-10 08:30N 29°22' W 012°42'613.1
2018-Jul-10 08:00N 29°27' W 012°38'713.2
2018-Jul-10 07:30N 29°33' W 012°35'713.3
2018-Jul-10 06:59N 29°39' W 012°31'713.3
2018-Jul-10 06:27N 29°45' W 012°26'713.4
2018-Jul-10 05:57N 29°51' W 012°22'613.4
2018-Jul-10 05:29N 29°56' W 012°19'713.5
2018-Jul-10 05:00N 30°02' W 012°15'713.5
2018-Jul-10 04:27N 30°08' W 012°10'613.7
2018-Jul-10 04:00N 30°13' W 012°07'713.7
2018-Jul-10 03:30N 30°19' W 012°03'713.7
2018-Jul-10 03:00N 30°25' W 011°58'714.1
2018-Jul-10 02:30N 30°31' W 011°54'714.3
2018-Jul-10 02:00N 30°37' W 011°50'714.1
2018-Jul-10 01:29N 30°43' W 011°45'713.8
2018-Jul-10 01:00N 30°49' W 011°41'713.4
2018-Jul-10 00:30N 30°55' W 011°37'713.1
2018-Jul-10 00:00N 31°00' W 011°34'613.0
2018-Jul-09 23:30N 31°06' W 011°30'813.2
2018-Jul-09 22:53N 31°13' W 011°25'513.2
2018-Jul-09 22:29N 31°17' W 011°21'713.3
2018-Jul-09 21:59N 31°23' W 011°17'613.3
2018-Jul-09 21:30N 31°28' W 011°13'713.2
2018-Jul-09 20:58N 31°35' W 011°09'613.1
2018-Jul-09 20:30N 31°40' W 011°06'813.3
2018-Jul-09 19:56N 31°46' W 011°01'613.5
2018-Jul-09 19:29N 31°52' W 010°57'813.4
2018-Jul-09 18:52N 31°59' W 010°52'813.4
2018-Jul-09 18:14N 32°06' W 010°47'313.5
2018-Jul-09 18:00N 32°09' W 010°45'713.7
2018-Jul-09 17:27N 32°15' W 010°41'1413.6
2018-Jul-09 16:25N 32°27' W 010°32'813.5
2018-Jul-09 15:47N 32°34' W 010°27'15213.0
2018-Jul-09 04:03N 34°30' W 008°28'412.9
2018-Jul-09 03:46N 34°33' W 008°25'16212.4
2018-Jul-08 14:39N 35°57' W 005°36'210.6
2018-Jul-08 14:30N 35°58' W 005°34'510.4
2018-Jul-08 14:00N 35°59' W 005°28'611.3
2018-Jul-08 13:30N 36°00' W 005°21'611.1
2018-Jul-08 13:00N 36°02' W 005°14'711.8
2018-Jul-08 12:27N 36°02' W 005°06'19612.0
2018-Jul-07 20:12N 36°32' W 001°06'412.9
2018-Jul-07 19:53N 36°32' W 001°01'913.2
2018-Jul-07 19:11N 36°36' W 000°51'213.5
2018-Jul-07 19:00N 36°37' W 000°48'813.6
2018-Jul-07 18:27N 36°40' W 000°39'3113.5
2018-Jul-07 16:08N 36°52' W 000°03'213.5
2018-Jul-07 16:00N 36°53' W 000°01'713.6
2018-Jul-07 15:30N 36°55' E 000°07'813.4
2018-Jul-07 14:55N 36°58' E 000°16'6413.0
2018-Jul-07 10:02N 37°23' E 001°30'2913.2
2018-Jul-07 07:51N 37°34' E 002°03'6413.2
2018-Jul-07 03:01N 37°39' E 003°24'213.2
2018-Jul-07 02:53N 37°39' E 003°26'613.2
2018-Jul-07 02:26N 37°39' E 003°33'5413.0
2018-Jul-06 22:16N 37°43' E 004°42'613.2
2018-Jul-06 21:50N 37°43' E 004°49'413.2
2018-Jul-06 21:30N 37°43' E 004°54'713.3
2018-Jul-06 20:57N 37°44' E 005°04'31112.4
2018-Jul-05 19:54N 37°24' E 011°35'5012.8
2018-Jul-05 16:02N 37°04' E 012°32'012.6
2018-Jul-05 16:00N 37°04' E 012°33'712.6
2018-Jul-05 15:29N 37°00' E 012°40'612.6
2018-Jul-05 15:00N 36°57' E 012°46'1312.9
2018-Jul-05 14:00N 36°51' E 013°00'613.1
2018-Jul-05 13:30N 36°47' E 013°07'713.2
2018-Jul-05 13:00N 36°44' E 013°14'713.0
2018-Jul-05 12:30N 36°41' E 013°21'713.3
2018-Jul-05 12:00N 36°38' E 013°29'613.1
2018-Jul-05 11:30N 36°34' E 013°36'612.8
2018-Jul-05 11:00N 36°31' E 013°43'612.7
2018-Jul-05 10:30N 36°28' E 013°49'712.7
2018-Jul-05 09:59N 36°24' E 013°56'612.8
2018-Jul-05 09:30N 36°21' E 014°03'613.0
2018-Jul-05 09:00N 36°18' E 014°10'713.0
2018-Jul-05 08:30N 36°14' E 014°16'613.1
2018-Jul-05 08:00N 36°10' E 014°23'612.9
2018-Jul-05 07:30N 36°06' E 014°29'712.9
2018-Jul-05 07:00N 36°02' E 014°35'18 1.2
2018-Jul-04 15:34N 35°53' E 014°55'0 0.1
2018-Jul-04 15:28N 35°53' E 014°55'0 0.0
2018-Jul-04 14:49N 35°53' E 014°55'0 0.1
2018-Jul-04 14:28N 35°53' E 014°55'0 0.1
2018-Jul-04 13:58N 35°53' E 014°55'0 0.0
2018-Jul-04 13:28N 35°53' E 014°55'0 0.0
2018-Jul-04 12:58N 35°53' E 014°55'0 0.1
2018-Jul-04 12:22N 35°53' E 014°55'0 0.1
2018-Jul-04 11:58N 35°53' E 014°55'0 0.1
2018-Jul-04 11:22N 35°53' E 014°55'0 0.1
2018-Jul-04 10:58N 35°53' E 014°55'0 0.1
2018-Jul-04 10:28N 35°53' E 014°55'0 0.1
2018-Jul-04 09:58N 35°53' E 014°55'0 0.1
2018-Jul-04 09:28N 35°53' E 014°55'0 0.1
2018-Jul-04 08:58N 35°53' E 014°55'0 0.1
2018-Jul-04 08:28N 35°53' E 014°55'0 0.0
2018-Jul-04 07:58N 35°53' E 014°55'0 0.0
2018-Jul-04 07:28N 35°53' E 014°55'0 0.0
2018-Jul-04 06:58N 35°53' E 014°55'0 0.0
2018-Jul-04 06:28N 35°53' E 014°55'0 0.1
2018-Jul-04 05:58N 35°53' E 014°55'0 0.0
2018-Jul-04 05:25N 35°53' E 014°55'0 0.0
2018-Jul-03 15:37N 35°53' E 014°55'0 0.0
2018-Jul-03 15:28N 35°53' E 014°55'0 0.0
2018-Jul-03 13:58N 35°53' E 014°55'0 0.1
2018-Jul-03 13:28N 35°53' E 014°55'0 0.3
2018-Jul-03 12:56N 35°53' E 014°55'2 5.8
2018-Jul-03 12:30N 35°52' E 014°58'510.4
2018-Jul-03 12:00N 35°49' E 015°03'713.2
2018-Jul-03 11:29N 35°45' E 015°10'713.4
2018-Jul-03 10:58N 35°40' E 015°16'1013.2
2018-Jul-03 10:14N 35°36' E 015°27'613.5
2018-Jul-03 09:49N 35°35' E 015°33'413.4
2018-Jul-03 09:30N 35°34' E 015°39'713.4
2018-Jul-03 09:00N 35°32' E 015°47'713.3
2018-Jul-03 08:30N 35°30' E 015°54'713.2
2018-Jul-03 08:00N 35°29' E 016°02'713.1
2018-Jul-03 07:30N 35°27' E 016°10'613.1
2018-Jul-03 07:00N 35°26' E 016°18'1012.9
2018-Jul-03 06:14N 35°23' E 016°30'712.8
2018-Jul-03 05:41N 35°22' E 016°38'  

Dump ship's entire track history